Sea Of Joy — OEX6720 — position and weather

sailwx.info

Track history (hours):
 
Tides and Currents Weather Stations Pressure Air Temp Water Temp Dewpoint Dewpoint Depression Visibility Wind Speed Wind Dir Waves Ship Positions

Sea Of Joy

Last reported at 2018-Sep-16 08:10 UTC. Time now 2019-Feb-22 12:49 UTC.
Position N 45°46' E 013°04'.
Warning: this ship's position is months out of date.

Length 13 m; draft 2 m.

Type: Sailing vessel. MMSI: 203114200.

Date/timePositionNaut miles runAvg speedWind from/ knotsBaromVisibWave heightAir tempDewpointWater temp
2018-Sep-16 08:10N 45°46' E 013°04'0 0.0
2018-Sep-16 08:01N 45°46' E 013°04'0 0.0
2018-Sep-16 07:58N 45°46' E 013°04'0 0.0
2018-Sep-16 07:22N 45°46' E 013°04'0 0.0
2018-Sep-16 06:49N 45°46' E 013°04'0 0.0
2018-Sep-16 06:16N 45°46' E 013°04'0 0.0
2018-Sep-16 05:52N 45°46' E 013°04'0 0.0
2018-Sep-16 05:13N 45°46' E 013°04'0 0.0
2018-Sep-16 04:43N 45°46' E 013°04'0 0.0
2018-Sep-16 04:25N 45°46' E 013°04'0 0.0
2018-Sep-16 03:55N 45°46' E 013°04'0 0.0
2018-Sep-16 03:16N 45°46' E 013°04'0 0.0
2018-Sep-16 03:01N 45°46' E 013°04'0 0.0
2018-Sep-16 02:52N 45°46' E 013°04'0 0.0
2018-Sep-16 02:28N 45°46' E 013°04'0 0.0
2018-Sep-16 02:01N 45°46' E 013°04'0 0.1
2018-Sep-16 01:58N 45°46' E 013°04'0 0.0
2018-Sep-16 01:13N 45°46' E 013°04'0 0.0
2018-Sep-16 00:49N 45°46' E 013°04'0 0.0
2018-Sep-16 00:22N 45°46' E 013°04'0 0.0
2018-Sep-16 00:01N 45°46' E 013°04'0 0.0
2018-Sep-15 23:52N 45°46' E 013°04'0 0.0
2018-Sep-15 23:28N 45°46' E 013°04'0 0.0
2018-Sep-15 22:52N 45°46' E 013°04'0 0.0
2018-Sep-15 22:25N 45°46' E 013°04'0 0.0
2018-Sep-15 21:58N 45°46' E 013°04'0 0.0
2018-Sep-15 21:28N 45°46' E 013°04'0 0.0
2018-Sep-15 21:01N 45°46' E 013°04'0 0.0
2018-Sep-15 20:58N 45°46' E 013°04'0 0.0
2018-Sep-15 20:28N 45°46' E 013°04'0 0.0
2018-Sep-15 19:55N 45°46' E 013°04'0 0.0
2018-Sep-15 19:16N 45°46' E 013°04'0 0.0
2018-Sep-15 18:25N 45°46' E 013°04'0 0.0
2018-Sep-15 18:01N 45°46' E 013°04'0 0.0
2018-Sep-15 17:58N 45°46' E 013°04'0 0.0
2018-Sep-15 17:22N 45°46' E 013°04'0 0.0
2018-Sep-15 17:01N 45°46' E 013°04'0 0.0
2018-Sep-15 16:58N 45°46' E 013°04'0 0.0
2018-Sep-15 16:22N 45°46' E 013°04'0 0.0
2018-Sep-15 16:01N 45°46' E 013°04'0 0.0
2018-Sep-15 15:55N 45°46' E 013°04'0 0.0
2018-Sep-15 15:19N 45°46' E 013°04'0 0.0
2018-Sep-15 14:58N 45°46' E 013°04'0 0.0
2018-Sep-15 14:25N 45°46' E 013°04'0 0.0
2018-Sep-15 13:55N 45°46' E 013°04'0 0.0
2018-Sep-15 13:25N 45°46' E 013°04'0 0.0
2018-Sep-15 12:46N 45°46' E 013°04'0 0.0
2018-Sep-15 12:28N 45°46' E 013°04'0 0.0
2018-Sep-15 11:52N 45°46' E 013°04'0 0.0
2018-Sep-15 11:19N 45°46' E 013°04'0 0.0
2018-Sep-15 10:19N 45°46' E 013°04'0 0.9
2018-Sep-15 10:03N 45°45' E 013°04'0 5.4
2018-Sep-15 10:00N 45°46' E 013°04'2 4.1
2018-Sep-15 09:30N 45°44' E 013°06'2 5.1
2018-Sep-15 09:02N 45°43' E 013°09'0 7.0
2018-Sep-15 09:00N 45°42' E 013°09'3 5.2
2018-Sep-15 08:30N 45°41' E 013°12'3 6.5
2018-Sep-15 08:03N 45°40' E 013°16'0 6.1
2018-Sep-15 08:00N 45°40' E 013°16'3 6.2
2018-Sep-15 07:30N 45°40' E 013°21'2 1.2
2018-Sep-15 06:01N 45°41' E 013°23'0 0.0
2018-Sep-15 05:40N 45°41' E 013°23'0 0.0
2018-Sep-15 03:49N 45°41' E 013°23'0 0.0
2018-Sep-15 03:19N 45°41' E 013°23'0 0.0
2018-Sep-15 02:46N 45°41' E 013°23'0 0.0
2018-Sep-15 02:04N 45°41' E 013°23'0 0.0
2018-Sep-15 02:01N 45°41' E 013°23'0 0.0
2018-Sep-15 01:58N 45°41' E 013°23'0 0.0
2018-Sep-15 01:28N 45°41' E 013°23'0 0.0
2018-Sep-15 00:58N 45°41' E 013°23'0 0.0
2018-Sep-15 00:22N 45°41' E 013°23'0 0.0
2018-Sep-15 00:01N 45°41' E 013°23'0 0.0
2018-Sep-14 23:52N 45°41' E 013°23'0 0.0
2018-Sep-14 23:22N 45°41' E 013°23'0 0.0
2018-Sep-14 22:49N 45°41' E 013°23'0 0.0
2018-Sep-14 22:16N 45°41' E 013°23'0 0.0
2018-Sep-14 21:55N 45°41' E 013°23'0 0.0
2018-Sep-14 21:28N 45°41' E 013°23'0 0.0
2018-Sep-14 20:52N 45°41' E 013°23'0 0.0
2018-Sep-14 20:22N 45°41' E 013°23'0 0.0
2018-Sep-14 19:58N 45°41' E 013°23'0 0.0
2018-Sep-14 19:22N 45°41' E 013°23'0 0.0
2018-Sep-14 17:46N 45°41' E 013°23'0 0.0
2018-Sep-14 17:22N 45°41' E 013°23'0 0.0
2018-Sep-14 15:52N 45°41' E 013°23'0 0.0
2018-Sep-14 15:25N 45°41' E 013°23'0 0.0
2018-Sep-14 14:52N 45°41' E 013°23'0 0.0
2018-Sep-14 14:28N 45°41' E 013°23'0 0.0
2018-Sep-14 13:52N 45°41' E 013°23'0 0.0
2018-Sep-14 13:25N 45°41' E 013°23'0 0.0
2018-Sep-14 12:46N 45°41' E 013°23'0 0.0
2018-Sep-14 12:25N 45°41' E 013°23'0 0.0
2018-Sep-14 12:00N 45°41' E 013°23'1 2.5
2018-Sep-14 11:30N 45°40' E 013°22'3 6.2
2018-Sep-14 11:02N 45°39' E 013°26'0 6.3
2018-Sep-14 11:00N 45°39' E 013°26'3 5.8
2018-Sep-14 10:30N 45°39' E 013°30'3 6.2
2018-Sep-14 10:01N 45°40' E 013°34'0 6.6
2018-Sep-14 10:00N 45°40' E 013°34'3 6.0
2018-Sep-14 09:30N 45°41' E 013°38'3 5.9
2018-Sep-14 09:02N 45°42' E 013°42'0 5.7
2018-Sep-14 09:00N 45°42' E 013°42'2 3.8
2018-Sep-14 08:30N 45°41' E 013°43'3 5.8
2018-Sep-14 08:03N 45°38' E 013°45'0 5.9
2018-Sep-14 08:00N 45°38' E 013°45'1 0.0
2018-Sep-13 11:12N 45°39' E 013°45'1 5.6
2018-Sep-13 11:03N 45°39' E 013°44'0 5.9
2018-Sep-13 11:00N 45°38' E 013°44'3 5.9
2018-Sep-13 10:30N 45°36' E 013°41'2 4.3
2018-Sep-13 10:03N 45°35' E 013°39'0 6.0
2018-Sep-13 10:00N 45°35' E 013°39'3 5.3
2018-Sep-13 09:30N 45°33' E 013°36'3 5.6
2018-Sep-13 09:03N 45°32' E 013°33'0 6.1
2018-Sep-13 08:59N 45°31' E 013°32'3 5.7
2018-Sep-13 08:30N 45°30' E 013°29'3 6.0
2018-Sep-13 08:03N 45°27' E 013°30'0 6.4
2018-Sep-13 08:00N 45°27' E 013°30'3 6.2
2018-Sep-13 07:30N 45°24' E 013°31'3 6.1
2018-Sep-13 07:03N 45°21' E 013°32'0 6.1
2018-Sep-13 07:00N 45°21' E 013°32'2 3.3
2018-Sep-13 06:24N 45°19' E 013°34'0 0.0
2018-Sep-12 14:49N 45°19' E 013°34'1 0.8
2018-Sep-12 14:01N 45°20' E 013°33'0 0.0
2018-Sep-12 13:52N 45°20' E 013°33'0 0.0
2018-Sep-12 13:28N 45°20' E 013°33'0 0.0
2018-Sep-12 13:01N 45°20' E 013°33'0 0.0
2018-Sep-12 12:58N 45°20' E 013°33'0 0.0
2018-Sep-12 12:25N 45°20' E 013°33'0 0.9
2018-Sep-12 12:02N 45°19' E 013°33'0 5.3
2018-Sep-12 12:00N 45°19' E 013°33'3 5.4
2018-Sep-12 11:30N 45°16' E 013°33'2 4.2
2018-Sep-12 11:03N 45°15' E 013°33'0 4.5
2018-Sep-12 11:00N 45°14' E 013°32'2 4.6
2018-Sep-12 10:30N 45°12' E 013°32'2 4.5
2018-Sep-12 10:02N 45°10' E 013°32'0 4.1
2018-Sep-12 10:00N 45°10' E 013°31'1 2.1
2018-Sep-12 09:30N 45°09' E 013°33'2 4.1
2018-Sep-12 09:03N 45°08' E 013°35'0 6.0
2018-Sep-12 09:00N 45°08' E 013°35'3 5.9
2018-Sep-12 08:30N 45°05' E 013°36'3 6.1
2018-Sep-12 08:03N 45°02' E 013°37'1 6.4
2018-Sep-12 07:58N 45°02' E 013°38'  
Track history (hours):
 
Tides and Currents Weather Stations Pressure Air Temp Water Temp Dewpoint Dewpoint Depression Visibility Wind Speed Wind Dir Waves Ship Positions

Sea Of Joy

Last reported at 2018-Sep-16 08:10 UTC. Time now 2019-Feb-22 12:49 UTC.
Position N 45°46' E 013°04'.
Warning: this ship's position is months out of date.

Length 13 m; draft 2 m.

Type: Sailing vessel. MMSI: 203114200.

Date/timePositionNaut miles runAvg speedWind from/ knotsBaromVisibWave heightAir tempDewpointWater temp
2018-Sep-16 08:10N 45°46' E 013°04'0 0.0
2018-Sep-16 08:01N 45°46' E 013°04'0 0.0
2018-Sep-16 07:58N 45°46' E 013°04'0 0.0
2018-Sep-16 07:22N 45°46' E 013°04'0 0.0
2018-Sep-16 06:49N 45°46' E 013°04'0 0.0
2018-Sep-16 06:16N 45°46' E 013°04'0 0.0
2018-Sep-16 05:52N 45°46' E 013°04'0 0.0
2018-Sep-16 05:13N 45°46' E 013°04'0 0.0
2018-Sep-16 04:43N 45°46' E 013°04'0 0.0
2018-Sep-16 04:25N 45°46' E 013°04'0 0.0
2018-Sep-16 03:55N 45°46' E 013°04'0 0.0
2018-Sep-16 03:16N 45°46' E 013°04'0 0.0
2018-Sep-16 03:01N 45°46' E 013°04'0 0.0
2018-Sep-16 02:52N 45°46' E 013°04'0 0.0
2018-Sep-16 02:28N 45°46' E 013°04'0 0.0
2018-Sep-16 02:01N 45°46' E 013°04'0 0.1
2018-Sep-16 01:58N 45°46' E 013°04'0 0.0
2018-Sep-16 01:13N 45°46' E 013°04'0 0.0
2018-Sep-16 00:49N 45°46' E 013°04'0 0.0
2018-Sep-16 00:22N 45°46' E 013°04'0 0.0
2018-Sep-16 00:01N 45°46' E 013°04'0 0.0
2018-Sep-15 23:52N 45°46' E 013°04'0 0.0
2018-Sep-15 23:28N 45°46' E 013°04'0 0.0
2018-Sep-15 22:52N 45°46' E 013°04'0 0.0
2018-Sep-15 22:25N 45°46' E 013°04'0 0.0
2018-Sep-15 21:58N 45°46' E 013°04'0 0.0
2018-Sep-15 21:28N 45°46' E 013°04'0 0.0
2018-Sep-15 21:01N 45°46' E 013°04'0 0.0
2018-Sep-15 20:58N 45°46' E 013°04'0 0.0
2018-Sep-15 20:28N 45°46' E 013°04'0 0.0
2018-Sep-15 19:55N 45°46' E 013°04'0 0.0
2018-Sep-15 19:16N 45°46' E 013°04'0 0.0
2018-Sep-15 18:25N 45°46' E 013°04'0 0.0
2018-Sep-15 18:01N 45°46' E 013°04'0 0.0
2018-Sep-15 17:58N 45°46' E 013°04'0 0.0
2018-Sep-15 17:22N 45°46' E 013°04'0 0.0
2018-Sep-15 17:01N 45°46' E 013°04'0 0.0
2018-Sep-15 16:58N 45°46' E 013°04'0 0.0
2018-Sep-15 16:22N 45°46' E 013°04'0 0.0
2018-Sep-15 16:01N 45°46' E 013°04'0 0.0
2018-Sep-15 15:55N 45°46' E 013°04'0 0.0
2018-Sep-15 15:19N 45°46' E 013°04'0 0.0
2018-Sep-15 14:58N 45°46' E 013°04'0 0.0
2018-Sep-15 14:25N 45°46' E 013°04'0 0.0
2018-Sep-15 13:55N 45°46' E 013°04'0 0.0
2018-Sep-15 13:25N 45°46' E 013°04'0 0.0
2018-Sep-15 12:46N 45°46' E 013°04'0 0.0
2018-Sep-15 12:28N 45°46' E 013°04'0 0.0
2018-Sep-15 11:52N 45°46' E 013°04'0 0.0
2018-Sep-15 11:19N 45°46' E 013°04'0 0.0
2018-Sep-15 10:19N 45°46' E 013°04'0 0.9
2018-Sep-15 10:03N 45°45' E 013°04'0 5.4
2018-Sep-15 10:00N 45°46' E 013°04'2 4.1
2018-Sep-15 09:30N 45°44' E 013°06'2 5.1
2018-Sep-15 09:02N 45°43' E 013°09'0 7.0
2018-Sep-15 09:00N 45°42' E 013°09'3 5.2
2018-Sep-15 08:30N 45°41' E 013°12'3 6.5
2018-Sep-15 08:03N 45°40' E 013°16'0 6.1
2018-Sep-15 08:00N 45°40' E 013°16'3 6.2
2018-Sep-15 07:30N 45°40' E 013°21'2 1.2
2018-Sep-15 06:01N 45°41' E 013°23'0 0.0
2018-Sep-15 05:40N 45°41' E 013°23'0 0.0
2018-Sep-15 03:49N 45°41' E 013°23'0 0.0
2018-Sep-15 03:19N 45°41' E 013°23'0 0.0
2018-Sep-15 02:46N 45°41' E 013°23'0 0.0
2018-Sep-15 02:04N 45°41' E 013°23'0 0.0
2018-Sep-15 02:01N 45°41' E 013°23'0 0.0
2018-Sep-15 01:58N 45°41' E 013°23'0 0.0
2018-Sep-15 01:28N 45°41' E 013°23'0 0.0
2018-Sep-15 00:58N 45°41' E 013°23'0 0.0
2018-Sep-15 00:22N 45°41' E 013°23'0 0.0
2018-Sep-15 00:01N 45°41' E 013°23'0 0.0
2018-Sep-14 23:52N 45°41' E 013°23'0 0.0
2018-Sep-14 23:22N 45°41' E 013°23'0 0.0
2018-Sep-14 22:49N 45°41' E 013°23'0 0.0
2018-Sep-14 22:16N 45°41' E 013°23'0 0.0
2018-Sep-14 21:55N 45°41' E 013°23'0 0.0
2018-Sep-14 21:28N 45°41' E 013°23'0 0.0
2018-Sep-14 20:52N 45°41' E 013°23'0 0.0
2018-Sep-14 20:22N 45°41' E 013°23'0 0.0
2018-Sep-14 19:58N 45°41' E 013°23'0 0.0
2018-Sep-14 19:22N 45°41' E 013°23'0 0.0
2018-Sep-14 17:46N 45°41' E 013°23'0 0.0
2018-Sep-14 17:22N 45°41' E 013°23'0 0.0
2018-Sep-14 15:52N 45°41' E 013°23'0 0.0
2018-Sep-14 15:25N 45°41' E 013°23'0 0.0
2018-Sep-14 14:52N 45°41' E 013°23'0 0.0
2018-Sep-14 14:28N 45°41' E 013°23'0 0.0
2018-Sep-14 13:52N 45°41' E 013°23'0 0.0
2018-Sep-14 13:25N 45°41' E 013°23'0 0.0
2018-Sep-14 12:46N 45°41' E 013°23'0 0.0
2018-Sep-14 12:25N 45°41' E 013°23'0 0.0
2018-Sep-14 12:00N 45°41' E 013°23'1 2.5
2018-Sep-14 11:30N 45°40' E 013°22'3 6.2
2018-Sep-14 11:02N 45°39' E 013°26'0 6.3
2018-Sep-14 11:00N 45°39' E 013°26'3 5.8
2018-Sep-14 10:30N 45°39' E 013°30'3 6.2
2018-Sep-14 10:01N 45°40' E 013°34'0 6.6
2018-Sep-14 10:00N 45°40' E 013°34'3 6.0
2018-Sep-14 09:30N 45°41' E 013°38'3 5.9
2018-Sep-14 09:02N 45°42' E 013°42'0 5.7
2018-Sep-14 09:00N 45°42' E 013°42'2 3.8
2018-Sep-14 08:30N 45°41' E 013°43'3 5.8
2018-Sep-14 08:03N 45°38' E 013°45'0 5.9
2018-Sep-14 08:00N 45°38' E 013°45'1 0.0
2018-Sep-13 11:12N 45°39' E 013°45'1 5.6
2018-Sep-13 11:03N 45°39' E 013°44'0 5.9
2018-Sep-13 11:00N 45°38' E 013°44'3 5.9
2018-Sep-13 10:30N 45°36' E 013°41'2 4.3
2018-Sep-13 10:03N 45°35' E 013°39'0 6.0
2018-Sep-13 10:00N 45°35' E 013°39'3 5.3
2018-Sep-13 09:30N 45°33' E 013°36'3 5.6
2018-Sep-13 09:03N 45°32' E 013°33'0 6.1
2018-Sep-13 08:59N 45°31' E 013°32'3 5.7
2018-Sep-13 08:30N 45°30' E 013°29'3 6.0
2018-Sep-13 08:03N 45°27' E 013°30'0 6.4
2018-Sep-13 08:00N 45°27' E 013°30'3 6.2
2018-Sep-13 07:30N 45°24' E 013°31'3 6.1
2018-Sep-13 07:03N 45°21' E 013°32'0 6.1
2018-Sep-13 07:00N 45°21' E 013°32'2 3.3
2018-Sep-13 06:24N 45°19' E 013°34'0 0.0
2018-Sep-12 14:49N 45°19' E 013°34'1 0.8
2018-Sep-12 14:01N 45°20' E 013°33'0 0.0
2018-Sep-12 13:52N 45°20' E 013°33'0 0.0
2018-Sep-12 13:28N 45°20' E 013°33'0 0.0
2018-Sep-12 13:01N 45°20' E 013°33'0 0.0
2018-Sep-12 12:58N 45°20' E 013°33'0 0.0
2018-Sep-12 12:25N 45°20' E 013°33'0 0.9
2018-Sep-12 12:02N 45°19' E 013°33'0 5.3
2018-Sep-12 12:00N 45°19' E 013°33'3 5.4
2018-Sep-12 11:30N 45°16' E 013°33'2 4.2
2018-Sep-12 11:03N 45°15' E 013°33'0 4.5
2018-Sep-12 11:00N 45°14' E 013°32'2 4.6
2018-Sep-12 10:30N 45°12' E 013°32'2 4.5
2018-Sep-12 10:02N 45°10' E 013°32'0 4.1
2018-Sep-12 10:00N 45°10' E 013°31'1 2.1
2018-Sep-12 09:30N 45°09' E 013°33'2 4.1
2018-Sep-12 09:03N 45°08' E 013°35'0 6.0
2018-Sep-12 09:00N 45°08' E 013°35'3 5.9
2018-Sep-12 08:30N 45°05' E 013°36'3 6.1
2018-Sep-12 08:03N 45°02' E 013°37'1 6.4
2018-Sep-12 07:58N 45°02' E 013°38'  

Dump ship's entire track history